sensor_id;sensor_type;location;lat;lon;timestamp;pressure;altitude;pressure_sealevel;temperature;humidity
10638;BME280;47007;49.252;8.904;2023-09-08T00:00:00;100000.16;;;19.00;100.00
10638;BME280;47007;49.252;8.904;2023-09-08T00:00:45;99983.09;;;18.83;100.00
10638;BME280;47007;49.252;8.904;2023-09-08T00:01:27;100006.00;;;18.97;100.00
10638;BME280;47007;49.252;8.904;2023-09-08T00:02:09;99998.16;;;18.95;100.00
10638;BME280;47007;49.252;8.904;2023-09-08T00:02:51;99981.47;;;18.82;100.00
10638;BME280;47007;49.252;8.904;2023-09-08T00:03:33;99925.97;;;18.41;100.00
10638;BME280;47007;49.252;8.904;2023-09-08T00:04:15;99999.13;;;18.89;100.00
10638;BME280;47007;49.252;8.904;2023-09-08T00:04:57;100001.22;;;18.87;100.00
10638;BME280;47007;49.252;8.904;2023-09-08T00:05:38;99988.59;;;18.88;100.00
10638;BME280;47007;49.252;8.904;2023-09-08T00:06:20;99927.94;;;18.45;100.00
10638;BME280;47007;49.252;8.904;2023-09-08T00:07:02;99930.31;;;18.53;100.00
10638;BME280;47007;49.252;8.904;2023-09-08T00:07:44;99918.75;;;18.41;100.00
10638;BME280;47007;49.252;8.904;2023-09-08T00:08:25;99994.06;;;18.93;100.00
10638;BME280;47007;49.252;8.904;2023-09-08T00:09:07;99974.47;;;18.81;100.00
10638;BME280;47007;49.252;8.904;2023-09-08T00:09:49;99933.22;;;18.52;100.00
10638;BME280;47007;49.252;8.904;2023-09-08T00:10:31;99970.41;;;18.78;100.00
10638;BME280;47007;49.252;8.904;2023-09-08T00:11:13;99990.34;;;18.94;100.00
10638;BME280;47007;49.252;8.904;2023-09-08T00:11:54;99928.19;;;18.55;100.00
10638;BME280;47007;49.252;8.904;2023-09-08T00:12:36;99993.16;;;18.99;100.00
10638;BME280;47007;49.252;8.904;2023-09-08T00:13:17;99981.25;;;18.95;100.00
10638;BME280;47007;49.252;8.904;2023-09-08T00:13:59;99911.75;;;18.52;100.00
10638;BME280;47007;49.252;8.904;2023-09-08T00:14:41;99986.59;;;18.95;100.00
10638;BME280;47007;49.252;8.904;2023-09-08T00:15:23;99987.19;;;18.85;100.00
10638;BME280;47007;49.252;8.904;2023-09-08T00:16:04;99990.81;;;18.79;100.00
10638;BME280;47007;49.252;8.904;2023-09-08T00:16:46;99927.69;;;18.23;100.00
10638;BME280;47007;49.252;8.904;2023-09-08T00:17:28;99992.78;;;18.72;100.00
10638;BME280;47007;49.252;8.904;2023-09-08T00:18:10;99985.69;;;18.66;100.00
10638;BME280;47007;49.252;8.904;2023-09-08T00:18:53;99986.81;;;18.70;100.00
10638;BME280;47007;49.252;8.904;2023-09-08T00:19:35;99994.06;;;18.70;100.00
10638;BME280;47007;49.252;8.904;2023-09-08T00:20:16;99989.97;;;18.67;100.00
10638;BME280;47007;49.252;8.904;2023-09-08T00:20:58;99991.06;;;18.66;100.00
10638;BME280;47007;49.252;8.904;2023-09-08T00:21:40;99978.75;;;18.58;100.00
10638;BME280;47007;49.252;8.904;2023-09-08T00:22:24;99981.00;;;18.61;100.00
10638;BME280;47007;49.252;8.904;2023-09-08T00:23:06;99983.31;;;18.58;100.00
10638;BME280;47007;49.252;8.904;2023-09-08T00:23:48;99993.13;;;18.64;100.00
10638;BME280;47007;49.252;8.904;2023-09-08T00:24:29;99987.63;;;18.59;100.00
10638;BME280;47007;49.252;8.904;2023-09-08T00:25:11;99974.53;;;18.51;100.00
10638;BME280;47007;49.252;8.904;2023-09-08T00:25:53;99982.69;;;18.56;100.00
10638;BME280;47007;49.252;8.904;2023-09-08T00:26:34;99983.72;;;18.55;100.00
10638;BME280;47007;49.252;8.904;2023-09-08T00:27:16;99991.00;;;18.54;100.00
10638;BME280;47007;49.252;8.904;2023-09-08T00:27:58;99985.84;;;18.53;100.00
10638;BME280;47007;49.252;8.904;2023-09-08T00:28:40;99983.41;;;18.51;100.00
10638;BME280;47007;49.252;8.904;2023-09-08T00:29:21;99949.50;;;18.27;100.00
10638;BME280;47007;49.252;8.904;2023-09-08T00:30:03;99986.75;;;18.47;100.00
10638;BME280;47007;49.252;8.904;2023-09-08T00:30:45;99901.16;;;17.92;100.00
10638;BME280;47007;49.252;8.904;2023-09-08T00:31:27;99990.28;;;18.47;100.00
10638;BME280;47007;49.252;8.904;2023-09-08T00:32:08;99991.53;;;18.45;100.00
10638;BME280;47007;49.252;8.904;2023-09-08T00:32:51;99982.06;;;18.42;100.00
10638;BME280;47007;49.252;8.904;2023-09-08T00:33:35;99994.38;;;18.50;100.00
10638;BME280;47007;49.252;8.904;2023-09-08T00:34:17;99992.59;;;18.44;100.00
10638;BME280;47007;49.252;8.904;2023-09-08T00:34:59;99990.84;;;18.38;100.00
10638;BME280;47007;49.252;8.904;2023-09-08T00:35:44;99990.00;;;18.37;100.00
10638;BME280;47007;49.252;8.904;2023-09-08T00:36:26;99976.22;;;18.22;100.00
10638;BME280;47007;49.252;8.904;2023-09-08T00:37:07;99996.28;;;18.31;100.00
10638;BME280;47007;49.252;8.904;2023-09-08T00:37:51;99990.81;;;18.26;100.00
10638;BME280;47007;49.252;8.904;2023-09-08T00:38:33;99990.09;;;18.30;100.00
10638;BME280;47007;49.252;8.904;2023-09-08T00:39:15;99975.97;;;18.23;100.00
10638;BME280;47007;49.252;8.904;2023-09-08T00:39:56;99976.56;;;18.25;100.00
10638;BME280;47007;49.252;8.904;2023-09-08T00:40:38;99990.91;;;18.31;100.00
10638;BME280;47007;49.252;8.904;2023-09-08T00:41:20;99987.19;;;18.32;100.00
10638;BME280;47007;49.252;8.904;2023-09-08T00:42:02;99989.53;;;18.28;100.00
10638;BME280;47007;49.252;8.904;2023-09-08T00:42:46;99957.63;;;18.09;100.00
10638;BME280;47007;49.252;8.904;2023-09-08T00:43:28;99991.97;;;18.30;100.00
10638;BME280;47007;49.252;8.904;2023-09-08T00:44:10;99989.28;;;18.30;100.00
10638;BME280;47007;49.252;8.904;2023-09-08T00:44:52;99978.66;;;18.23;100.00
10638;BME280;47007;49.252;8.904;2023-09-08T00:45:38;99994.13;;;18.40;100.00
10638;BME280;47007;49.252;8.904;2023-09-08T00:46:22;99976.34;;;18.27;100.00
10638;BME280;47007;49.252;8.904;2023-09-08T00:47:04;99981.75;;;18.39;100.00
10638;BME280;47007;49.252;8.904;2023-09-08T00:47:46;99971.22;;;18.25;100.00
10638;BME280;47007;49.252;8.904;2023-09-08T00:48:28;99982.19;;;18.36;100.00
10638;BME280;47007;49.252;8.904;2023-09-08T00:49:10;99972.97;;;18.31;100.00
10638;BME280;47007;49.252;8.904;2023-09-08T00:49:53;99986.28;;;18.38;100.00
10638;BME280;47007;49.252;8.904;2023-09-08T00:50:36;99989.78;;;18.39;100.00
10638;BME280;47007;49.252;8.904;2023-09-08T00:51:18;99982.88;;;18.31;100.00
10638;BME280;47007;49.252;8.904;2023-09-08T00:52:00;99987.19;;;18.32;100.00
10638;BME280;47007;49.252;8.904;2023-09-08T00:52:43;99980.66;;;18.28;100.00
10638;BME280;47007;49.252;8.904;2023-09-08T00:53:25;99977.94;;;18.16;100.00
10638;BME280;47007;49.252;8.904;2023-09-08T00:54:08;99966.81;;;18.01;100.00
10638;BME280;47007;49.252;8.904;2023-09-08T00:54:50;99982.56;;;18.09;100.00
10638;BME280;47007;49.252;8.904;2023-09-08T00:55:32;99979.31;;;18.07;100.00
10638;BME280;47007;49.252;8.904;2023-09-08T00:56:14;99984.66;;;18.07;100.00
10638;BME280;47007;49.252;8.904;2023-09-08T00:56:56;99971.69;;;17.92;100.00
10638;BME280;47007;49.252;8.904;2023-09-08T00:57:38;99978.38;;;18.02;100.00
10638;BME280;47007;49.252;8.904;2023-09-08T00:58:20;99973.91;;;17.95;100.00
10638;BME280;47007;49.252;8.904;2023-09-08T00:59:02;99972.47;;;17.93;100.00
10638;BME280;47007;49.252;8.904;2023-09-08T00:59:44;99979.25;;;17.95;100.00
10638;BME280;47007;49.252;8.904;2023-09-08T01:00:26;99981.94;;;17.95;100.00
10638;BME280;47007;49.252;8.904;2023-09-08T01:01:08;99965.13;;;17.88;100.00
10638;BME280;47007;49.252;8.904;2023-09-08T01:01:49;99985.66;;;17.94;100.00
10638;BME280;47007;49.252;8.904;2023-09-08T01:02:31;99961.03;;;17.86;100.00
10638;BME280;47007;49.252;8.904;2023-09-08T01:03:13;99875.72;;;17.35;100.00
10638;BME280;47007;49.252;8.904;2023-09-08T01:03:55;99974.72;;;17.96;100.00
10638;BME280;47007;49.252;8.904;2023-09-08T01:04:37;99968.75;;;17.94;100.00
10638;BME280;47007;49.252;8.904;2023-09-08T01:05:22;99948.84;;;17.72;100.00
10638;BME280;47007;49.252;8.904;2023-09-08T01:06:05;99964.66;;;17.80;100.00
10638;BME280;47007;49.252;8.904;2023-09-08T01:06:48;99910.69;;;17.40;100.00
10638;BME280;47007;49.252;8.904;2023-09-08T01:07:31;99966.44;;;17.68;100.00
10638;BME280;47007;49.252;8.904;2023-09-08T01:08:13;99983.38;;;17.62;100.00
10638;BME280;47007;49.252;8.904;2023-09-08T01:08:56;99963.91;;;17.54;100.00
10638;BME280;47007;49.252;8.904;2023-09-08T01:09:38;99936.50;;;17.34;100.00
10638;BME280;47007;49.252;8.904;2023-09-08T01:10:21;99965.53;;;17.55;100.00
10638;BME280;47007;49.252;8.904;2023-09-08T01:11:03;99948.81;;;17.42;100.00
10638;BME280;47007;49.252;8.904;2023-09-08T01:11:45;99891.75;;;17.05;100.00
10638;BME280;47007;49.252;8.904;2023-09-08T01:12:30;99957.34;;;17.50;100.00
10638;BME280;47007;49.252;8.904;2023-09-08T01:13:12;99927.03;;;17.32;100.00
10638;BME280;47007;49.252;8.904;2023-09-08T01:13:54;99960.53;;;17.59;100.00
10638;BME280;47007;49.252;8.904;2023-09-08T01:14:36;99939.25;;;17.46;100.00
10638;BME280;47007;49.252;8.904;2023-09-08T01:15:18;99898.00;;;17.17;100.00
10638;BME280;47007;49.252;8.904;2023-09-08T01:16:01;99956.44;;;17.56;100.00
10638;BME280;47007;49.252;8.904;2023-09-08T01:16:43;99972.88;;;17.60;100.00
10638;BME280;47007;49.252;8.904;2023-09-08T01:17:25;99950.56;;;17.48;100.00
10638;BME280;47007;49.252;8.904;2023-09-08T01:18:07;99954.28;;;17.47;100.00
10638;BME280;47007;49.252;8.904;2023-09-08T01:18:49;99973.34;;;17.57;100.00
10638;BME280;47007;49.252;8.904;2023-09-08T01:19:33;99868.16;;;16.95;100.00
10638;BME280;47007;49.252;8.904;2023-09-08T01:20:29;99964.47;;;17.56;100.00
10638;BME280;47007;49.252;8.904;2023-09-08T01:23:06;99973.66;;;17.67;100.00
10638;BME280;47007;49.252;8.904;2023-09-08T01:25:59;99965.75;;;17.72;100.00
10638;BME280;47007;49.252;8.904;2023-09-08T01:26:45;99956.44;;;17.56;100.00
10638;BME280;47007;49.252;8.904;2023-09-08T01:27:29;99978.34;;;17.72;100.00
10638;BME280;47007;49.252;8.904;2023-09-08T01:28:12;99965.25;;;17.64;100.00
10638;BME280;47007;49.252;8.904;2023-09-08T01:28:55;99946.53;;;17.57;100.00
10638;BME280;47007;49.252;8.904;2023-09-08T01:29:38;99955.47;;;17.69;100.00
10638;BME280;47007;49.252;8.904;2023-09-08T01:30:23;99970.94;;;17.85;100.00
10638;BME280;47007;49.252;8.904;2023-09-08T01:31:05;99967.06;;;17.81;100.00
10638;BME280;47007;49.252;8.904;2023-09-08T01:31:47;99967.44;;;17.85;100.00
10638;BME280;47007;49.252;8.904;2023-09-08T01:32:29;99955.78;;;17.79;100.00
10638;BME280;47007;49.252;8.904;2023-09-08T01:33:11;99967.59;;;17.90;100.00
10638;BME280;47007;49.252;8.904;2023-09-08T01:33:53;99970.50;;;17.88;100.00
10638;BME280;47007;49.252;8.904;2023-09-08T01:34:37;99973.66;;;17.97;100.00
10638;BME280;47007;49.252;8.904;2023-09-08T01:35:21;99926.50;;;17.59;100.00
10638;BME280;47007;49.252;8.904;2023-09-08T01:36:03;99974.13;;;17.94;100.00
10638;BME280;47007;49.252;8.904;2023-09-08T01:36:45;99965.41;;;17.99;100.00
10638;BME280;47007;49.252;8.904;2023-09-08T01:37:27;99958.03;;;17.94;100.00
10638;BME280;47007;49.252;8.904;2023-09-08T01:38:09;99951.50;;;17.90;100.00
10638;BME280;47007;49.252;8.904;2023-09-08T01:38:54;99894.66;;;17.51;100.00
10638;BME280;47007;49.252;8.904;2023-09-08T01:39:35;99970.91;;;18.04;100.00
10638;BME280;47007;49.252;8.904;2023-09-08T01:40:17;99882.31;;;17.50;100.00
10638;BME280;47007;49.252;8.904;2023-09-08T01:41:00;99968.56;;;18.07;100.00
10638;BME280;47007;49.252;8.904;2023-09-08T01:41:43;99964.03;;;18.08;100.00
10638;BME280;47007;49.252;8.904;2023-09-08T01:42:24;99873.91;;;17.47;100.00
10638;BME280;47007;49.252;8.904;2023-09-08T01:43:06;99966.94;;;18.06;100.00
10638;BME280;47007;49.252;8.904;2023-09-08T01:43:48;99966.38;;;18.04;100.00
10638;BME280;47007;49.252;8.904;2023-09-08T01:44:29;99950.56;;;17.96;100.00
10638;BME280;47007;49.252;8.904;2023-09-08T01:45:11;99891.28;;;17.56;100.00
10638;BME280;47007;49.252;8.904;2023-09-08T01:45:53;99967.84;;;18.00;100.00
10638;BME280;47007;49.252;8.904;2023-09-08T01:46:35;99957.69;;;17.90;100.00
10638;BME280;47007;49.252;8.904;2023-09-08T01:47:16;99947.84;;;17.84;100.00
10638;BME280;47007;49.252;8.904;2023-09-08T01:47:58;99906.59;;;17.55;100.00
10638;BME280;47007;49.252;8.904;2023-09-08T01:48:40;99960.59;;;17.89;100.00
10638;BME280;47007;49.252;8.904;2023-09-08T01:49:24;99960.97;;;17.92;100.00
10638;BME280;47007;49.252;8.904;2023-09-08T01:50:06;99971.31;;;17.89;100.00
10638;BME280;47007;49.252;8.904;2023-09-08T01:50:48;99953.91;;;17.80;100.00
10638;BME280;47007;49.252;8.904;2023-09-08T01:51:30;99945.34;;;17.71;100.00
10638;BME280;47007;49.252;8.904;2023-09-08T01:52:12;99959.63;;;17.83;100.00
10638;BME280;47007;49.252;8.904;2023-09-08T01:52:54;99973.03;;;17.83;100.00
10638;BME280;47007;49.252;8.904;2023-09-08T01:53:36;99968.94;;;17.81;100.00
10638;BME280;47007;49.252;8.904;2023-09-08T01:54:18;99961.81;;;17.75;100.00
10638;BME280;47007;49.252;8.904;2023-09-08T01:55:00;99966.50;;;17.79;100.00
10638;BME280;47007;49.252;8.904;2023-09-08T01:55:43;99970.22;;;17.78;100.00
10638;BME280;47007;49.252;8.904;2023-09-08T01:56:24;99906.59;;;17.37;100.00
10638;BME280;47007;49.252;8.904;2023-09-08T01:57:07;99902.50;;;17.35;100.00
10638;BME280;47007;49.252;8.904;2023-09-08T01:57:49;99968.00;;;17.75;100.00
10638;BME280;47007;49.252;8.904;2023-09-08T01:58:31;99964.50;;;17.75;100.00
10638;BME280;47007;49.252;8.904;2023-09-08T01:59:15;99968.22;;;17.74;100.00
10638;BME280;47007;49.252;8.904;2023-09-08T01:59:57;99958.53;;;17.73;100.00
10638;BME280;47007;49.252;8.904;2023-09-08T02:00:39;99966.56;;;17.73;100.00
10638;BME280;47007;49.252;8.904;2023-09-08T02:01:21;99967.84;;;17.70;100.00
10638;BME280;47007;49.252;8.904;2023-09-08T02:02:03;99976.09;;;17.69;100.00
10638;BME280;47007;49.252;8.904;2023-09-08T02:02:45;99945.72;;;17.56;100.00
10638;BME280;47007;49.252;8.904;2023-09-08T02:03:27;99971.81;;;17.68;100.00
10638;BME280;47007;49.252;8.904;2023-09-08T02:04:09;99889.94;;;17.17;100.00
10638;BME280;47007;49.252;8.904;2023-09-08T02:04:50;99970.41;;;17.65;100.00
10638;BME280;47007;49.252;8.904;2023-09-08T02:05:32;99942.91;;;17.51;100.00
10638;BME280;47007;49.252;8.904;2023-09-08T02:06:15;99965.44;;;17.62;100.00
10638;BME280;47007;49.252;8.904;2023-09-08T02:06:57;99972.50;;;17.56;100.00
10638;BME280;47007;49.252;8.904;2023-09-08T02:07:39;99970.91;;;17.55;100.00
10638;BME280;47007;49.252;8.904;2023-09-08T02:08:21;99934.03;;;17.33;100.00
10638;BME280;47007;49.252;8.904;2023-09-08T02:09:03;99968.88;;;17.51;100.00
10638;BME280;47007;49.252;8.904;2023-09-08T02:09:46;99969.94;;;17.50;100.00
10638;BME280;47007;49.252;8.904;2023-09-08T02:10:28;99973.66;;;17.49;100.00
10638;BME280;47007;49.252;8.904;2023-09-08T02:11:09;99967.47;;;17.48;100.00
10638;BME280;47007;49.252;8.904;2023-09-08T02:11:51;99964.06;;;17.41;100.00
10638;BME280;47007;49.252;8.904;2023-09-08T02:12:32;99969.31;;;17.48;100.00
10638;BME280;47007;49.252;8.904;2023-09-08T02:13:14;99856.84;;;16.75;100.00
10638;BME280;47007;49.252;8.904;2023-09-08T02:13:56;99914.34;;;17.09;100.00
10638;BME280;47007;49.252;8.904;2023-09-08T02:14:39;99950.13;;;17.33;100.00
10638;BME280;47007;49.252;8.904;2023-09-08T02:15:21;99970.59;;;17.45;100.00
10638;BME280;47007;49.252;8.904;2023-09-08T02:16:03;99942.91;;;17.33;100.00
10638;BME280;47007;49.252;8.904;2023-09-08T02:16:45;99946.78;;;17.37;100.00
10638;BME280;47007;49.252;8.904;2023-09-08T02:17:27;99965.00;;;17.47;100.00
10638;BME280;47007;49.252;8.904;2023-09-08T02:18:09;99951.22;;;17.43;100.00
10638;BME280;47007;49.252;8.904;2023-09-08T02:18:51;99960.69;;;17.46;100.00
10638;BME280;47007;49.252;8.904;2023-09-08T02:19:32;99941.53;;;17.31;100.00
10638;BME280;47007;49.252;8.904;2023-09-08T02:20:14;99959.28;;;17.43;100.00
10638;BME280;47007;49.252;8.904;2023-09-08T02:20:56;99962.53;;;17.45;100.00
10638;BME280;47007;49.252;8.904;2023-09-08T02:21:38;99875.22;;;16.90;100.00
10638;BME280;47007;49.252;8.904;2023-09-08T02:22:19;99962.78;;;17.44;100.00
10638;BME280;47007;49.252;8.904;2023-09-08T02:23:05;99949.84;;;17.41;100.00
10638;BME280;47007;49.252;8.904;2023-09-08T02:23:48;99954.38;;;17.40;100.00
10638;BME280;47007;49.252;8.904;2023-09-08T02:24:30;99954.97;;;17.42;100.00
10638;BME280;47007;49.252;8.904;2023-09-08T02:25:12;99925.72;;;17.22;100.00
10638;BME280;47007;49.252;8.904;2023-09-08T02:25:53;99954.72;;;17.44;100.00
10638;BME280;47007;49.252;8.904;2023-09-08T02:26:35;99949.03;;;17.40;100.00
10638;BME280;47007;49.252;8.904;2023-09-08T02:27:17;99948.41;;;17.38;100.00
10638;BME280;47007;49.252;8.904;2023-09-08T02:28:00;99938.59;;;17.32;100.00
10638;BME280;47007;49.252;8.904;2023-09-08T02:28:41;99950.44;;;17.43;100.00
10638;BME280;47007;49.252;8.904;2023-09-08T02:29:23;99955.81;;;17.43;100.00
10638;BME280;47007;49.252;8.904;2023-09-08T02:30:05;99942.63;;;17.41;100.00
10638;BME280;47007;49.252;8.904;2023-09-08T02:30:47;99952.66;;;17.46;100.00
10638;BME280;47007;49.252;8.904;2023-09-08T02:31:30;99950.19;;;17.44;100.00
10638;BME280;47007;49.252;8.904;2023-09-08T02:32:12;99932.06;;;17.28;100.00
10638;BME280;47007;49.252;8.904;2023-09-08T02:32:55;99952.75;;;17.39;100.00
10638;BME280;47007;49.252;8.904;2023-09-08T02:33:37;99957.66;;;17.42;100.00
10638;BME280;47007;49.252;8.904;2023-09-08T02:34:19;99947.38;;;17.39;100.00
10638;BME280;47007;49.252;8.904;2023-09-08T02:35:01;99956.03;;;17.41;100.00
10638;BME280;47007;49.252;8.904;2023-09-08T02:35:43;99948.03;;;17.35;100.00
10638;BME280;47007;49.252;8.904;2023-09-08T02:36:26;99949.03;;;17.40;100.00
10638;BME280;47007;49.252;8.904;2023-09-08T02:37:10;99961.81;;;17.38;100.00
10638;BME280;47007;49.252;8.904;2023-09-08T02:37:51;99940.31;;;17.27;100.00
10638;BME280;47007;49.252;8.904;2023-09-08T02:38:34;99954.66;;;17.32;100.00
10638;BME280;47007;49.252;8.904;2023-09-08T02:39:16;99958.53;;;17.36;100.00
10638;BME280;47007;49.252;8.904;2023-09-08T02:39:58;99962.03;;;17.37;100.00
10638;BME280;47007;49.252;8.904;2023-09-08T02:40:40;99881.00;;;16.86;100.00
10638;BME280;47007;49.252;8.904;2023-09-08T02:41:22;99946.50;;;17.27;100.00
10638;BME280;47007;49.252;8.904;2023-09-08T02:42:04;99938.59;;;17.14;100.00
10638;BME280;47007;49.252;8.904;2023-09-08T02:42:46;99953.94;;;17.25;100.00
10638;BME280;47007;49.252;8.904;2023-09-08T02:43:28;99974.09;;;17.28;100.00
10638;BME280;47007;49.252;8.904;2023-09-08T02:44:10;99951.84;;;17.27;100.00
10638;BME280;47007;49.252;8.904;2023-09-08T02:44:51;99896.22;;;16.93;100.00
10638;BME280;47007;49.252;8.904;2023-09-08T02:45:33;99886.38;;;16.86;100.00
10638;BME280;47007;49.252;8.904;2023-09-08T02:46:17;99882.28;;;16.84;100.00
10638;BME280;47007;49.252;8.904;2023-09-08T02:46:59;99942.31;;;17.13;100.00
10638;BME280;47007;49.252;8.904;2023-09-08T02:47:41;99949.31;;;17.32;100.00
10638;BME280;47007;49.252;8.904;2023-09-08T02:48:24;99899.00;;;16.98;100.00
10638;BME280;47007;49.252;8.904;2023-09-08T02:49:06;99873.41;;;16.83;100.00
10638;BME280;47007;49.252;8.904;2023-09-08T02:49:47;99953.63;;;17.33;100.00
10638;BME280;47007;49.252;8.904;2023-09-08T02:50:29;99820.00;;;16.52;100.00
10638;BME280;47007;49.252;8.904;2023-09-08T02:51:11;99954.44;;;17.34;100.00
10638;BME280;47007;49.252;8.904;2023-09-08T02:51:53;99939.72;;;17.24;100.00
10638;BME280;47007;49.252;8.904;2023-09-08T02:52:35;99903.13;;;17.00;100.00
10638;BME280;47007;49.252;8.904;2023-09-08T02:53:17;99927.66;;;17.15;100.00
10638;BME280;47007;49.252;8.904;2023-09-08T02:53:58;99941.13;;;17.27;100.00
10638;BME280;47007;49.252;8.904;2023-09-08T02:54:40;99913.69;;;17.13;100.00
10638;BME280;47007;49.252;8.904;2023-09-08T02:55:22;99926.97;;;17.20;100.00
10638;BME280;47007;49.252;8.904;2023-09-08T02:56:04;99948.88;;;17.35;100.00
10638;BME280;47007;49.252;8.904;2023-09-08T02:56:47;99955.88;;;17.36;100.00
10638;BME280;47007;49.252;8.904;2023-09-08T02:57:28;99954.81;;;17.37;100.00
10638;BME280;47007;49.252;8.904;2023-09-08T02:58:10;99961.44;;;17.35;100.00
10638;BME280;47007;49.252;8.904;2023-09-08T02:58:52;99938.28;;;17.22;100.00
10638;BME280;47007;49.252;8.904;2023-09-08T02:59:34;99870.16;;;16.81;100.00
10638;BME280;47007;49.252;8.904;2023-09-08T03:00:15;99944.47;;;17.22;100.00
10638;BME280;47007;49.252;8.904;2023-09-08T03:00:57;99942.56;;;17.30;100.00
10638;BME280;47007;49.252;8.904;2023-09-08T03:01:39;99932.06;;;17.28;100.00
10638;BME280;47007;49.252;8.904;2023-09-08T03:02:21;99941.97;;;17.28;100.00
10638;BME280;47007;49.252;8.904;2023-09-08T03:03:03;99864.22;;;16.79;100.00
10638;BME280;47007;49.252;8.904;2023-09-08T03:03:46;99955.41;;;17.39;100.00
10638;BME280;47007;49.252;8.904;2023-09-08T03:04:28;99954.59;;;17.39;100.00
10638;BME280;47007;49.252;8.904;2023-09-08T03:05:10;99950.28;;;17.38;100.00
10638;BME280;47007;49.252;8.904;2023-09-08T03:05:54;99952.75;;;17.39;100.00
10638;BME280;47007;49.252;8.904;2023-09-08T03:06:38;99948.94;;;17.29;100.00
10638;BME280;47007;49.252;8.904;2023-09-08T03:07:19;99918.34;;;17.00;100.00
10638;BME280;47007;49.252;8.904;2023-09-08T03:08:01;99894.91;;;16.77;100.00
10638;BME280;47007;49.252;8.904;2023-09-08T03:08:43;99895.75;;;16.77;100.00
10638;BME280;47007;49.252;8.904;2023-09-08T03:09:24;99960.03;;;17.14;100.00
10638;BME280;47007;49.252;8.904;2023-09-08T03:10:06;99955.75;;;17.06;100.00
10638;BME280;47007;49.252;8.904;2023-09-08T03:10:48;99912.31;;;16.86;100.00
10638;BME280;47007;49.252;8.904;2023-09-08T03:11:30;99955.72;;;17.13;100.00
10638;BME280;47007;49.252;8.904;2023-09-08T03:12:12;99943.97;;;17.14;100.00
10638;BME280;47007;49.252;8.904;2023-09-08T03:12:54;99949.75;;;17.11;100.00
10638;BME280;47007;49.252;8.904;2023-09-08T03:13:36;99927.59;;;17.04;100.00
10638;BME280;47007;49.252;8.904;2023-09-08T03:14:18;99948.28;;;17.15;100.00
10638;BME280;47007;49.252;8.904;2023-09-08T03:15:01;99931.44;;;17.08;100.00
10638;BME280;47007;49.252;8.904;2023-09-08T03:15:43;99952.06;;;17.26;100.00
10638;BME280;47007;49.252;8.904;2023-09-08T03:16:25;99956.59;;;17.25;100.00
10638;BME280;47007;49.252;8.904;2023-09-08T03:17:06;99934.13;;;17.08;100.00
10638;BME280;47007;49.252;8.904;2023-09-08T03:17:48;99893.59;;;16.86;100.00
10638;BME280;47007;49.252;8.904;2023-09-08T03:18:30;99963.59;;;17.26;100.00
10638;BME280;47007;49.252;8.904;2023-09-08T03:19:12;99908.56;;;16.94;100.00
10638;BME280;47007;49.252;8.904;2023-09-08T03:19:53;99917.91;;;17.03;100.00
10638;BME280;47007;49.252;8.904;2023-09-08T03:20:35;99912.69;;;16.90;100.00
10638;BME280;47007;49.252;8.904;2023-09-08T03:21:17;99878.16;;;16.63;100.00
10638;BME280;47007;49.252;8.904;2023-09-08T03:21:59;99884.66;;;16.74;100.00
10638;BME280;47007;49.252;8.904;2023-09-08T03:22:40;99939.69;;;17.06;100.00
10638;BME280;47007;49.252;8.904;2023-09-08T03:23:22;99959.25;;;17.07;100.00
10638;BME280;47007;49.252;8.904;2023-09-08T03:24:04;99959.72;;;17.04;100.00
10638;BME280;47007;49.252;8.904;2023-09-08T03:24:47;99956.66;;;17.00;100.00
10638;BME280;47007;49.252;8.904;2023-09-08T03:25:29;99967.59;;;16.99;100.00
10638;BME280;47007;49.252;8.904;2023-09-08T03:26:11;99888.31;;;16.55;100.00
10638;BME280;47007;49.252;8.904;2023-09-08T03:26:53;99951.81;;;16.91;100.00
10638;BME280;47007;49.252;8.904;2023-09-08T03:27:35;99953.25;;;16.93;100.00
10638;BME280;47007;49.252;8.904;2023-09-08T03:28:18;99956.50;;;16.95;100.00
10638;BME280;47007;49.252;8.904;2023-09-08T03:28:59;99954.84;;;16.94;100.00
10638;BME280;47007;49.252;8.904;2023-09-08T03:29:41;99940.13;;;16.85;100.00
10638;BME280;47007;49.252;8.904;2023-09-08T03:30:23;99960.47;;;16.93;100.00
10638;BME280;47007;49.252;8.904;2023-09-08T03:31:05;99947.13;;;16.86;100.00
10638;BME280;47007;49.252;8.904;2023-09-08T03:31:48;99958.81;;;16.92;100.00
10638;BME280;47007;49.252;8.904;2023-09-08T03:32:31;99964.59;;;16.88;100.00
10638;BME280;47007;49.252;8.904;2023-09-08T03:33:13;99956.19;;;16.85;100.00
10638;BME280;47007;49.252;8.904;2023-09-08T03:33:55;99944.97;;;16.76;100.00
10638;BME280;47007;49.252;8.904;2023-09-08T03:34:37;99956.88;;;16.80;100.00
10638;BME280;47007;49.252;8.904;2023-09-08T03:35:21;99958.47;;;16.81;100.00
10638;BME280;47007;49.252;8.904;2023-09-08T03:36:03;99953.38;;;16.80;100.00
10638;BME280;47007;49.252;8.904;2023-09-08T03:36:45;99962.22;;;16.80;100.00
10638;BME280;47007;49.252;8.904;2023-09-08T03:37:26;99963.84;;;16.81;100.00
10638;BME280;47007;49.252;8.904;2023-09-08T03:38:08;99963.84;;;16.81;100.00
10638;BME280;47007;49.252;8.904;2023-09-08T03:38:50;99947.47;;;16.71;100.00
10638;BME280;47007;49.252;8.904;2023-09-08T03:39:32;99956.88;;;16.80;100.00
10638;BME280;47007;49.252;8.904;2023-09-08T03:40:15;99926.97;;;16.59;100.00
10638;BME280;47007;49.252;8.904;2023-09-08T03:40:57;99961.44;;;16.73;100.00
10638;BME280;47007;49.252;8.904;2023-09-08T03:41:40;99954.66;;;16.71;100.00
10638;BME280;47007;49.252;8.904;2023-09-08T03:42:22;99956.16;;;16.67;100.00
10638;BME280;47007;49.252;8.904;2023-09-08T03:43:04;99950.81;;;16.67;100.00
10638;BME280;47007;49.252;8.904;2023-09-08T03:43:45;99957.00;;;16.67;100.00
10638;BME280;47007;49.252;8.904;2023-09-08T03:44:27;99954.09;;;16.69;100.00